sensor_id;sensor_type;location;lat;lon;timestamp;P1;durP1;ratioP1;P2;durP2;ratioP2
934;SDS011;454;53.254;10.400;2023-10-13T04:01:34;18.03;;;10.00;;
934;SDS011;454;53.254;10.400;2023-10-13T04:04:10;21.23;;;10.77;;
934;SDS011;454;53.254;10.400;2023-10-13T04:06:39;15.53;;;10.40;;
934;SDS011;454;53.254;10.400;2023-10-13T04:09:27;17.90;;;10.63;;
934;SDS011;454;53.254;10.400;2023-10-13T04:12:11;22.60;;;11.47;;
934;SDS011;454;53.254;10.400;2023-10-13T04:15:04;21.33;;;10.80;;
934;SDS011;454;53.254;10.400;2023-10-13T04:17:46;22.20;;;14.30;;
934;SDS011;454;53.254;10.400;2023-10-13T04:20:14;29.50;;;13.37;;
934;SDS011;454;53.254;10.400;2023-10-13T04:22:52;28.17;;;14.00;;
934;SDS011;454;53.254;10.400;2023-10-13T04:25:37;24.80;;;13.37;;
934;SDS011;454;53.254;10.400;2023-10-13T04:28:30;29.37;;;13.90;;
934;SDS011;454;53.254;10.400;2023-10-13T04:31:16;29.20;;;14.87;;
934;SDS011;454;53.254;10.400;2023-10-13T04:34:06;31.77;;;15.30;;
934;SDS011;454;53.254;10.400;2023-10-13T04:36:40;29.13;;;16.60;;
934;SDS011;454;53.254;10.400;2023-10-13T04:39:10;31.03;;;15.20;;
934;SDS011;454;53.254;10.400;2023-10-13T04:41:42;35.20;;;17.30;;
934;SDS011;454;53.254;10.400;2023-10-13T04:44:10;33.20;;;15.70;;
934;SDS011;454;53.254;10.400;2023-10-13T04:47:04;31.17;;;15.70;;
934;SDS011;454;53.254;10.400;2023-10-13T04:49:34;37.03;;;17.00;;
934;SDS011;454;53.254;10.400;2023-10-13T04:52:17;40.50;;;17.70;;
934;SDS011;454;53.254;10.400;2023-10-13T04:55:03;40.27;;;17.37;;
934;SDS011;454;53.254;10.400;2023-10-13T04:58:02;35.40;;;17.23;;
934;SDS011;454;53.254;10.400;2023-10-13T05:00:38;31.17;;;17.93;;
934;SDS011;454;53.254;10.400;2023-10-13T05:03:36;31.80;;;17.10;;
934;SDS011;454;53.254;10.400;2023-10-13T05:06:32;37.07;;;17.30;;
934;SDS011;454;53.254;10.400;2023-10-13T05:09:16;35.23;;;17.70;;
934;SDS011;454;53.254;10.400;2023-10-13T05:12:00;41.50;;;18.67;;
934;SDS011;454;53.254;10.400;2023-10-13T05:14:44;29.87;;;16.90;;
934;SDS011;454;53.254;10.400;2023-10-13T05:17:31;34.73;;;16.37;;
934;SDS011;454;53.254;10.400;2023-10-13T05:20:15;39.30;;;19.63;;
934;SDS011;454;53.254;10.400;2023-10-13T05:22:59;38.40;;;17.37;;
934;SDS011;454;53.254;10.400;2023-10-13T05:25:43;42.17;;;18.70;;
934;SDS011;454;53.254;10.400;2023-10-13T05:28:27;34.93;;;17.97;;
934;SDS011;454;53.254;10.400;2023-10-13T05:31:11;34.70;;;19.23;;
934;SDS011;454;53.254;10.400;2023-10-13T05:33:56;41.77;;;19.40;;
934;SDS011;454;53.254;10.400;2023-10-13T05:36:40;37.00;;;19.93;;
934;SDS011;454;53.254;10.400;2023-10-13T05:39:25;36.73;;;20.83;;
934;SDS011;454;53.254;10.400;2023-10-13T05:42:09;43.07;;;20.03;;
934;SDS011;454;53.254;10.400;2023-10-13T05:44:53;42.10;;;20.20;;
934;SDS011;454;53.254;10.400;2023-10-13T05:47:42;43.10;;;18.77;;
934;SDS011;454;53.254;10.400;2023-10-13T05:50:27;42.20;;;20.10;;
934;SDS011;454;53.254;10.400;2023-10-13T05:53:10;45.00;;;21.13;;
934;SDS011;454;53.254;10.400;2023-10-13T05:55:59;35.27;;;19.03;;
934;SDS011;454;53.254;10.400;2023-10-13T05:58:44;37.90;;;19.60;;
934;SDS011;454;53.254;10.400;2023-10-13T06:01:28;37.10;;;19.90;;
934;SDS011;454;53.254;10.400;2023-10-13T06:04:12;37.47;;;20.43;;
934;SDS011;454;53.254;10.400;2023-10-13T06:06:57;39.27;;;19.17;;
934;SDS011;454;53.254;10.400;2023-10-13T06:09:41;40.50;;;20.60;;
934;SDS011;454;53.254;10.400;2023-10-13T06:12:25;43.00;;;19.70;;
934;SDS011;454;53.254;10.400;2023-10-13T06:15:09;32.87;;;19.47;;
934;SDS011;454;53.254;10.400;2023-10-13T06:17:54;38.97;;;19.43;;
934;SDS011;454;53.254;10.400;2023-10-13T06:20:38;44.00;;;21.07;;
934;SDS011;454;53.254;10.400;2023-10-13T06:23:24;37.10;;;19.97;;
934;SDS011;454;53.254;10.400;2023-10-13T06:26:08;33.57;;;18.80;;
934;SDS011;454;53.254;10.400;2023-10-13T06:28:52;42.63;;;19.77;;
934;SDS011;454;53.254;10.400;2023-10-13T06:31:19;35.90;;;19.47;;
934;SDS011;454;53.254;10.400;2023-10-13T06:33:50;39.57;;;18.50;;
934;SDS011;454;53.254;10.400;2023-10-13T06:36:20;37.23;;;20.63;;
934;SDS011;454;53.254;10.400;2023-10-13T06:38:48;33.47;;;19.37;;
934;SDS011;454;53.254;10.400;2023-10-13T06:41:41;35.87;;;19.30;;
934;SDS011;454;53.254;10.400;2023-10-13T06:44:08;37.57;;;20.67;;
934;SDS011;454;53.254;10.400;2023-10-13T06:46:40;33.17;;;19.97;;
934;SDS011;454;53.254;10.400;2023-10-13T06:49:07;35.73;;;18.70;;
934;SDS011;454;53.254;10.400;2023-10-13T06:51:34;35.50;;;19.17;;
934;SDS011;454;53.254;10.400;2023-10-13T06:54:04;37.33;;;18.20;;
934;SDS011;454;53.254;10.400;2023-10-13T06:56:35;31.70;;;17.63;;
934;SDS011;454;53.254;10.400;2023-10-13T06:59:04;35.90;;;18.80;;
934;SDS011;454;53.254;10.400;2023-10-13T07:01:31;31.87;;;18.37;;
934;SDS011;454;53.254;10.400;2023-10-13T07:04:03;26.70;;;17.53;;
934;SDS011;454;53.254;10.400;2023-10-13T07:06:31;30.57;;;17.60;;
934;SDS011;454;53.254;10.400;2023-10-13T07:08:58;31.83;;;16.70;;
934;SDS011;454;53.254;10.400;2023-10-13T07:11:30;29.10;;;16.50;;
934;SDS011;454;53.254;10.400;2023-10-13T07:13:59;30.53;;;16.97;;
934;SDS011;454;53.254;10.400;2023-10-13T07:16:34;26.50;;;17.20;;
934;SDS011;454;53.254;10.400;2023-10-13T07:19:03;22.50;;;14.37;;
934;SDS011;454;53.254;10.400;2023-10-13T07:21:31;30.10;;;16.97;;
934;SDS011;454;53.254;10.400;2023-10-13T07:23:58;25.00;;;14.70;;
934;SDS011;454;53.254;10.400;2023-10-13T07:26:35;24.00;;;14.70;;
934;SDS011;454;53.254;10.400;2023-10-13T07:29:07;21.13;;;13.77;;
934;SDS011;454;53.254;10.400;2023-10-13T07:31:35;28.03;;;13.80;;
934;SDS011;454;53.254;10.400;2023-10-13T07:34:03;21.27;;;13.30;;
934;SDS011;454;53.254;10.400;2023-10-13T07:36:37;23.03;;;13.47;;
934;SDS011;454;53.254;10.400;2023-10-13T07:39:05;22.50;;;14.67;;
934;SDS011;454;53.254;10.400;2023-10-13T07:41:47;20.10;;;12.67;;
934;SDS011;454;53.254;10.400;2023-10-13T07:44:16;19.10;;;13.00;;
934;SDS011;454;53.254;10.400;2023-10-13T07:46:45;23.13;;;13.17;;
934;SDS011;454;53.254;10.400;2023-10-13T07:49:22;23.67;;;12.40;;
934;SDS011;454;53.254;10.400;2023-10-13T07:51:50;15.30;;;11.20;;
934;SDS011;454;53.254;10.400;2023-10-13T07:54:22;22.60;;;12.20;;
934;SDS011;454;53.254;10.400;2023-10-13T07:56:50;18.50;;;11.30;;
934;SDS011;454;53.254;10.400;2023-10-13T07:59:19;19.33;;;12.40;;
934;SDS011;454;53.254;10.400;2023-10-13T08:01:47;19.03;;;12.63;;
934;SDS011;454;53.254;10.400;2023-10-13T08:04:34;22.13;;;12.23;;
934;SDS011;454;53.254;10.400;2023-10-13T08:07:02;14.13;;;10.93;;
934;SDS011;454;53.254;10.400;2023-10-13T08:09:37;13.83;;;10.00;;
934;SDS011;454;53.254;10.400;2023-10-13T08:12:07;16.17;;;11.47;;
934;SDS011;454;53.254;10.400;2023-10-13T08:14:37;15.47;;;10.27;;
934;SDS011;454;53.254;10.400;2023-10-13T08:17:05;16.10;;;10.33;;
934;SDS011;454;53.254;10.400;2023-10-13T08:19:35;13.00;;;10.23;;
934;SDS011;454;53.254;10.400;2023-10-13T08:22:07;16.47;;;10.23;;
934;SDS011;454;53.254;10.400;2023-10-13T08:24:50;14.60;;;10.40;;
934;SDS011;454;53.254;10.400;2023-10-13T08:27:39;13.77;;;9.57;;
934;SDS011;454;53.254;10.400;2023-10-13T08:30:14;13.07;;;9.50;;
934;SDS011;454;53.254;10.400;2023-10-13T08:32:54;13.73;;;9.43;;
934;SDS011;454;53.254;10.400;2023-10-13T08:35:22;13.77;;;9.50;;
934;SDS011;454;53.254;10.400;2023-10-13T08:37:58;11.70;;;9.50;;
934;SDS011;454;53.254;10.400;2023-10-13T08:40:29;9.17;;;7.47;;
934;SDS011;454;53.254;10.400;2023-10-13T08:43:11;7.90;;;6.77;;
934;SDS011;454;53.254;10.400;2023-10-13T08:45:39;6.87;;;6.27;;
934;SDS011;454;53.254;10.400;2023-10-13T08:48:24;7.23;;;6.50;;
934;SDS011;454;53.254;10.400;2023-10-13T08:50:57;7.63;;;6.20;;
934;SDS011;454;53.254;10.400;2023-10-13T08:53:31;8.30;;;6.77;;
934;SDS011;454;53.254;10.400;2023-10-13T08:55:59;6.47;;;6.00;;
934;SDS011;454;53.254;10.400;2023-10-13T08:58:32;5.70;;;5.20;;
934;SDS011;454;53.254;10.400;2023-10-13T09:01:17;7.13;;;5.43;;
934;SDS011;454;53.254;10.400;2023-10-13T09:03:58;6.97;;;6.10;;
934;SDS011;454;53.254;10.400;2023-10-13T09:06:46;6.37;;;5.70;;
934;SDS011;454;53.254;10.400;2023-10-13T09:09:23;9.30;;;5.60;;
934;SDS011;454;53.254;10.400;2023-10-13T09:12:00;5.80;;;5.40;;
934;SDS011;454;53.254;10.400;2023-10-13T09:14:35;5.33;;;4.93;;
934;SDS011;454;53.254;10.400;2023-10-13T09:17:07;6.17;;;5.50;;
934;SDS011;454;53.254;10.400;2023-10-13T09:22:22;5.30;;;4.90;;
934;SDS011;454;53.254;10.400;2023-10-13T09:24:54;5.10;;;4.57;;
934;SDS011;454;53.254;10.400;2023-10-13T09:27:23;5.93;;;5.37;;
934;SDS011;454;53.254;10.400;2023-10-13T09:29:59;5.73;;;5.23;;
934;SDS011;454;53.254;10.400;2023-10-13T09:32:34;4.43;;;4.00;;
934;SDS011;454;53.254;10.400;2023-10-13T09:35:10;5.53;;;5.13;;
934;SDS011;454;53.254;10.400;2023-10-13T09:37:44;10.57;;;5.20;;
934;SDS011;454;53.254;10.400;2023-10-13T09:40:12;4.70;;;4.40;;
934;SDS011;454;53.254;10.400;2023-10-13T09:42:59;5.30;;;4.90;;
934;SDS011;454;53.254;10.400;2023-10-13T09:45:33;5.57;;;5.07;;
934;SDS011;454;53.254;10.400;2023-10-13T09:48:04;6.17;;;5.63;;
934;SDS011;454;53.254;10.400;2023-10-13T09:50:41;5.37;;;4.80;;
934;SDS011;454;53.254;10.400;2023-10-13T09:53:11;5.73;;;5.30;;
934;SDS011;454;53.254;10.400;2023-10-13T09:55:40;8.33;;;5.37;;
934;SDS011;454;53.254;10.400;2023-10-13T09:58:10;5.70;;;5.23;;
934;SDS011;454;53.254;10.400;2023-10-13T10:00:41;6.13;;;5.53;;
934;SDS011;454;53.254;10.400;2023-10-13T10:03:13;6.47;;;5.40;;
934;SDS011;454;53.254;10.400;2023-10-13T10:05:58;6.63;;;6.03;;
934;SDS011;454;53.254;10.400;2023-10-13T10:08:38;5.33;;;4.90;;
934;SDS011;454;53.254;10.400;2023-10-13T10:11:19;7.07;;;6.13;;
934;SDS011;454;53.254;10.400;2023-10-13T10:14:02;9.37;;;6.30;;
934;SDS011;454;53.254;10.400;2023-10-13T10:16:42;8.13;;;5.97;;
934;SDS011;454;53.254;10.400;2023-10-13T10:19:17;7.80;;;5.83;;
934;SDS011;454;53.254;10.400;2023-10-13T10:21:44;7.30;;;6.23;;
934;SDS011;454;53.254;10.400;2023-10-13T10:24:14;12.20;;;6.80;;
934;SDS011;454;53.254;10.400;2023-10-13T10:26:52;6.00;;;5.40;;
934;SDS011;454;53.254;10.400;2023-10-13T10:29:19;9.67;;;7.00;;
934;SDS011;454;53.254;10.400;2023-10-13T10:31:47;7.17;;;6.40;;
934;SDS011;454;53.254;10.400;2023-10-13T10:34:14;6.70;;;6.00;;
934;SDS011;454;53.254;10.400;2023-10-13T10:36:45;9.40;;;6.87;;
934;SDS011;454;53.254;10.400;2023-10-13T10:39:13;7.77;;;5.97;;
934;SDS011;454;53.254;10.400;2023-10-13T10:41:40;6.67;;;6.07;;
934;SDS011;454;53.254;10.400;2023-10-13T10:44:17;7.53;;;6.47;;
934;SDS011;454;53.254;10.400;2023-10-13T10:46:49;6.73;;;6.13;;
934;SDS011;454;53.254;10.400;2023-10-13T10:49:23;8.70;;;7.00;;
934;SDS011;454;53.254;10.400;2023-10-13T10:51:57;7.27;;;6.63;;
934;SDS011;454;53.254;10.400;2023-10-13T10:54:29;5.90;;;5.40;;
934;SDS011;454;53.254;10.400;2023-10-13T10:56:56;6.77;;;5.90;;
934;SDS011;454;53.254;10.400;2023-10-13T10:59:35;7.10;;;6.60;;
934;SDS011;454;53.254;10.400;2023-10-13T11:02:04;7.57;;;6.60;;
934;SDS011;454;53.254;10.400;2023-10-13T11:04:33;6.87;;;5.90;;
934;SDS011;454;53.254;10.400;2023-10-13T11:07:05;5.70;;;4.80;;
934;SDS011;454;53.254;10.400;2023-10-13T11:09:34;6.20;;;5.50;;
934;SDS011;454;53.254;10.400;2023-10-13T11:12:11;6.03;;;5.37;;
934;SDS011;454;53.254;10.400;2023-10-13T11:14:49;5.37;;;4.97;;
934;SDS011;454;53.254;10.400;2023-10-13T11:17:27;4.73;;;4.43;;
934;SDS011;454;53.254;10.400;2023-10-13T11:20:09;5.97;;;4.40;;
934;SDS011;454;53.254;10.400;2023-10-13T11:22:46;5.43;;;4.80;;
934;SDS011;454;53.254;10.400;2023-10-13T11:25:21;6.17;;;5.07;;
934;SDS011;454;53.254;10.400;2023-10-13T11:27:54;4.93;;;4.37;;
934;SDS011;454;53.254;10.400;2023-10-13T11:30:23;4.93;;;4.50;;
934;SDS011;454;53.254;10.400;2023-10-13T11:33:02;5.87;;;4.60;;
934;SDS011;454;53.254;10.400;2023-10-13T11:35:30;5.20;;;4.40;;
934;SDS011;454;53.254;10.400;2023-10-13T11:38:11;5.30;;;5.00;;
934;SDS011;454;53.254;10.400;2023-10-13T11:40:39;4.57;;;4.37;;
934;SDS011;454;53.254;10.400;2023-10-13T11:43:31;6.13;;;4.40;;
934;SDS011;454;53.254;10.400;2023-10-13T11:46:10;5.30;;;4.90;;
934;SDS011;454;53.254;10.400;2023-10-13T11:48:42;4.13;;;3.93;;
934;SDS011;454;53.254;10.400;2023-10-13T11:51:10;4.87;;;4.40;;
934;SDS011;454;53.254;10.400;2023-10-13T11:53:42;4.30;;;4.00;;
934;SDS011;454;53.254;10.400;2023-10-13T11:56:08;4.37;;;4.07;;
934;SDS011;454;53.254;10.400;2023-10-13T11:58:35;4.10;;;3.70;;
934;SDS011;454;53.254;10.400;2023-10-13T12:01:02;3.87;;;3.60;;
934;SDS011;454;53.254;10.400;2023-10-13T12:03:47;3.97;;;3.70;;
934;SDS011;454;53.254;10.400;2023-10-13T12:06:33;3.63;;;3.30;;
934;SDS011;454;53.254;10.400;2023-10-13T12:09:12;7.20;;;3.60;;
934;SDS011;454;53.254;10.400;2023-10-13T12:11:57;4.10;;;3.80;;
934;SDS011;454;53.254;10.400;2023-10-13T12:14:25;3.83;;;3.53;;
934;SDS011;454;53.254;10.400;2023-10-13T12:16:54;5.00;;;3.63;;
934;SDS011;454;53.254;10.400;2023-10-13T12:19:30;4.97;;;4.57;;
934;SDS011;454;53.254;10.400;2023-10-13T12:21:57;4.87;;;4.37;;
934;SDS011;454;53.254;10.400;2023-10-13T12:24:29;3.90;;;3.60;;
934;SDS011;454;53.254;10.400;2023-10-13T12:27:05;3.87;;;3.57;;
934;SDS011;454;53.254;10.400;2023-10-13T12:29:43;4.57;;;4.23;;
934;SDS011;454;53.254;10.400;2023-10-13T12:32:11;3.77;;;3.50;;
934;SDS011;454;53.254;10.400;2023-10-13T12:34:40;5.37;;;3.70;;
934;SDS011;454;53.254;10.400;2023-10-13T12:37:41;4.70;;;3.60;;
934;SDS011;454;53.254;10.400;2023-10-13T12:40:17;5.53;;;3.27;;
934;SDS011;454;53.254;10.400;2023-10-13T12:43:03;5.37;;;3.90;;
934;SDS011;454;53.254;10.400;2023-10-13T12:45:48;4.10;;;3.80;;
934;SDS011;454;53.254;10.400;2023-10-13T12:48:33;4.73;;;3.57;;
934;SDS011;454;53.254;10.400;2023-10-13T12:51:20;5.17;;;4.07;;
934;SDS011;454;53.254;10.400;2023-10-13T12:54:05;3.77;;;3.47;;
934;SDS011;454;53.254;10.400;2023-10-13T12:56:39;4.60;;;4.13;;
934;SDS011;454;53.254;10.400;2023-10-13T12:59:06;4.50;;;4.10;;
934;SDS011;454;53.254;10.400;2023-10-13T13:01:34;3.97;;;3.60;;
934;SDS011;454;53.254;10.400;2023-10-13T13:04:07;4.87;;;4.37;;
934;SDS011;454;53.254;10.400;2023-10-13T13:06:38;8.90;;;4.10;;
934;SDS011;454;53.254;10.400;2023-10-13T13:09:05;4.23;;;3.90;;
934;SDS011;454;53.254;10.400;2023-10-13T13:11:34;4.30;;;3.90;;
934;SDS011;454;53.254;10.400;2023-10-13T13:14:04;5.13;;;4.27;;
934;SDS011;454;53.254;10.400;2023-10-13T13:16:33;3.87;;;3.60;;
934;SDS011;454;53.254;10.400;2023-10-13T13:19:00;5.00;;;4.40;;
934;SDS011;454;53.254;10.400;2023-10-13T13:21:28;4.60;;;4.30;;
934;SDS011;454;53.254;10.400;2023-10-13T13:23:56;4.73;;;4.10;;
934;SDS011;454;53.254;10.400;2023-10-13T13:26:23;5.03;;;4.43;;
934;SDS011;454;53.254;10.400;2023-10-13T13:28:50;4.97;;;4.40;;
934;SDS011;454;53.254;10.400;2023-10-13T13:31:17;4.73;;;4.07;;
934;SDS011;454;53.254;10.400;2023-10-13T13:33:44;4.07;;;3.73;;
934;SDS011;454;53.254;10.400;2023-10-13T13:36:11;4.60;;;3.80;;
934;SDS011;454;53.254;10.400;2023-10-13T13:38:40;4.93;;;4.20;;
934;SDS011;454;53.254;10.400;2023-10-13T13:41:12;7.20;;;4.77;;
934;SDS011;454;53.254;10.400;2023-10-13T13:43:41;4.33;;;3.97;;
934;SDS011;454;53.254;10.400;2023-10-13T13:46:19;4.40;;;4.10;;
934;SDS011;454;53.254;10.400;2023-10-13T13:48:50;6.73;;;4.33;;
934;SDS011;454;53.254;10.400;2023-10-13T13:51:23;3.80;;;3.60;;
934;SDS011;454;53.254;10.400;2023-10-13T13:53:53;4.67;;;4.03;;
934;SDS011;454;53.254;10.400;2023-10-13T13:56:22;4.03;;;3.70;;
934;SDS011;454;53.254;10.400;2023-10-13T13:58:51;5.10;;;4.00;;
934;SDS011;454;53.254;10.400;2023-10-13T14:01:18;4.37;;;4.03;;
934;SDS011;454;53.254;10.400;2023-10-13T14:03:47;7.33;;;4.60;;
934;SDS011;454;53.254;10.400;2023-10-13T14:06:16;5.97;;;4.33;;
934;SDS011;454;53.254;10.400;2023-10-13T14:08:46;5.63;;;5.10;;
934;SDS011;454;53.254;10.400;2023-10-13T14:11:15;4.30;;;3.93;;
934;SDS011;454;53.254;10.400;2023-10-13T14:13:58;4.20;;;3.90;;
934;SDS011;454;53.254;10.400;2023-10-13T14:16:29;7.97;;;4.00;;
934;SDS011;454;53.254;10.400;2023-10-13T14:18:58;10.90;;;5.00;;
934;SDS011;454;53.254;10.400;2023-10-13T14:21:26;10.20;;;5.40;;
934;SDS011;454;53.254;10.400;2023-10-13T14:23:53;4.60;;;3.77;;
934;SDS011;454;53.254;10.400;2023-10-13T14:26:20;6.00;;;4.50;;
934;SDS011;454;53.254;10.400;2023-10-13T14:28:50;15.53;;;4.17;;
934;SDS011;454;53.254;10.400;2023-10-13T14:31:27;13.47;;;5.57;;
934;SDS011;454;53.254;10.400;2023-10-13T14:33:53;9.60;;;4.83;;
934;SDS011;454;53.254;10.400;2023-10-13T14:36:20;6.33;;;4.90;;
934;SDS011;454;53.254;10.400;2023-10-13T14:38:47;8.13;;;5.07;;
934;SDS011;454;53.254;10.400;2023-10-13T14:41:15;5.83;;;3.97;;
934;SDS011;454;53.254;10.400;2023-10-13T14:43:43;7.57;;;4.90;;
934;SDS011;454;53.254;10.400;2023-10-13T14:46:13;9.00;;;4.63;;
934;SDS011;454;53.254;10.400;2023-10-13T14:48:42;6.00;;;5.60;;
934;SDS011;454;53.254;10.400;2023-10-13T14:51:09;10.10;;;4.53;;
934;SDS011;454;53.254;10.400;2023-10-13T14:53:38;6.20;;;4.63;;
934;SDS011;454;53.254;10.400;2023-10-13T14:56:08;6.70;;;4.60;;
934;SDS011;454;53.254;10.400;2023-10-13T14:58:36;6.10;;;4.60;;
934;SDS011;454;53.254;10.400;2023-10-13T15:01:10;4.30;;;3.73;;
934;SDS011;454;53.254;10.400;2023-10-13T15:03:38;13.47;;;5.27;;
934;SDS011;454;53.254;10.400;2023-10-13T15:06:07;7.80;;;4.93;;
934;SDS011;454;53.254;10.400;2023-10-13T15:08:34;8.10;;;4.87;;
934;SDS011;454;53.254;10.400;2023-10-13T15:11:07;5.87;;;5.30;;
934;SDS011;454;53.254;10.400;2023-10-13T15:13:37;7.17;;;4.80;;
934;SDS011;454;53.254;10.400;2023-10-13T15:16:12;4.73;;;4.30;;
934;SDS011;454;53.254;10.400;2023-10-13T15:18:40;6.93;;;5.40;;
934;SDS011;454;53.254;10.400;2023-10-13T15:21:08;5.40;;;4.03;;
934;SDS011;454;53.254;10.400;2023-10-13T15:23:35;8.87;;;5.13;;
934;SDS011;454;53.254;10.400;2023-10-13T15:26:07;6.83;;;5.20;;
934;SDS011;454;53.254;10.400;2023-10-13T15:28:35;7.30;;;4.70;;
934;SDS011;454;53.254;10.400;2023-10-13T15:31:10;7.43;;;4.60;;
934;SDS011;454;53.254;10.400;2023-10-13T15:33:49;8.73;;;5.17;;
934;SDS011;454;53.254;10.400;2023-10-13T15:36:20;10.13;;;5.20;;
934;SDS011;454;53.254;10.400;2023-10-13T15:38:48;6.67;;;4.73;;
934;SDS011;454;53.254;10.400;2023-10-13T15:41:20;5.87;;;4.73;;
934;SDS011;454;53.254;10.400;2023-10-13T15:43:48;6.87;;;4.10;;
934;SDS011;454;53.254;10.400;2023-10-13T15:46:16;5.20;;;4.43;;
934;SDS011;454;53.254;10.400;2023-10-13T15:48:44;8.57;;;5.27;;
934;SDS011;454;53.254;10.400;2023-10-13T15:51:11;6.80;;;4.47;;
934;SDS011;454;53.254;10.400;2023-10-13T15:53:39;5.50;;;4.97;;
934;SDS011;454;53.254;10.400;2023-10-13T15:56:08;8.70;;;4.70;;
934;SDS011;454;53.254;10.400;2023-10-13T15:58:37;6.00;;;4.97;;
934;SDS011;454;53.254;10.400;2023-10-13T16:01:04;5.63;;;5.00;;
934;SDS011;454;53.254;10.400;2023-10-13T16:03:32;9.30;;;6.07;;
934;SDS011;454;53.254;10.400;2023-10-13T16:06:01;6.97;;;4.20;;
934;SDS011;454;53.254;10.400;2023-10-13T16:08:34;4.73;;;4.43;;
934;SDS011;454;53.254;10.400;2023-10-13T16:11:06;8.40;;;5.50;;
934;SDS011;454;53.254;10.400;2023-10-13T16:13:36;7.07;;;5.33;;
934;SDS011;454;53.254;10.400;2023-10-13T16:16:03;7.80;;;5.30;;
934;SDS011;454;53.254;10.400;2023-10-13T16:18:30;13.77;;;6.00;;
934;SDS011;454;53.254;10.400;2023-10-13T16:20:58;5.50;;;4.50;;
934;SDS011;454;53.254;10.400;2023-10-13T16:23:28;11.53;;;5.40;;
934;SDS011;454;53.254;10.400;2023-10-13T16:25:55;5.67;;;4.87;;
934;SDS011;454;53.254;10.400;2023-10-13T16:28:25;4.90;;;4.50;;
934;SDS011;454;53.254;10.400;2023-10-13T16:30:52;12.37;;;5.53;;
934;SDS011;454;53.254;10.400;2023-10-13T16:33:20;12.60;;;6.20;;
934;SDS011;454;53.254;10.400;2023-10-13T16:35:47;9.10;;;6.33;;
934;SDS011;454;53.254;10.400;2023-10-13T16:38:15;9.67;;;4.40;;
934;SDS011;454;53.254;10.400;2023-10-13T16:40:42;6.50;;;4.53;;
934;SDS011;454;53.254;10.400;2023-10-13T16:43:08;11.97;;;5.10;;
934;SDS011;454;53.254;10.400;2023-10-13T16:45:38;7.27;;;4.90;;
934;SDS011;454;53.254;10.400;2023-10-13T16:48:09;7.70;;;5.33;;
934;SDS011;454;53.254;10.400;2023-10-13T16:50:38;10.77;;;4.87;;
934;SDS011;454;53.254;10.400;2023-10-13T16:53:06;5.60;;;4.50;;
934;SDS011;454;53.254;10.400;2023-10-13T16:55:33;9.93;;;4.57;;
934;SDS011;454;53.254;10.400;2023-10-13T16:58:00;7.30;;;4.40;;
934;SDS011;454;53.254;10.400;2023-10-13T17:00:26;8.77;;;4.90;;
934;SDS011;454;53.254;10.400;2023-10-13T17:02:55;5.60;;;4.73;;
934;SDS011;454;53.254;10.400;2023-10-13T17:05:23;5.10;;;4.60;;
934;SDS011;454;53.254;10.400;2023-10-13T17:07:52;4.43;;;4.10;;
934;SDS011;454;53.254;10.400;2023-10-13T17:10:23;4.53;;;4.13;;
934;SDS011;454;53.254;10.400;2023-10-13T17:12:53;5.03;;;4.20;;
934;SDS011;454;53.254;10.400;2023-10-13T17:15:21;14.93;;;4.43;;
934;SDS011;454;53.254;10.400;2023-10-13T17:17:48;8.77;;;4.53;;
934;SDS011;454;53.254;10.400;2023-10-13T17:20:17;8.70;;;4.60;;
934;SDS011;454;53.254;10.400;2023-10-13T17:22:43;8.13;;;4.40;;
934;SDS011;454;53.254;10.400;2023-10-13T17:25:11;8.30;;;4.23;;
934;SDS011;454;53.254;10.400;2023-10-13T17:27:38;4.63;;;4.23;;
934;SDS011;454;53.254;10.400;2023-10-13T17:30:05;7.53;;;4.13;;
934;SDS011;454;53.254;10.400;2023-10-13T17:32:33;9.83;;;3.80;;
934;SDS011;454;53.254;10.400;2023-10-13T17:35:00;7.40;;;3.50;;
934;SDS011;454;53.254;10.400;2023-10-13T17:37:28;9.03;;;3.10;;
934;SDS011;454;53.254;10.400;2023-10-13T17:39:55;6.07;;;3.90;;
934;SDS011;454;53.254;10.400;2023-10-13T17:42:25;7.10;;;3.50;;
934;SDS011;454;53.254;10.400;2023-10-13T17:44:51;6.00;;;3.43;;
934;SDS011;454;53.254;10.400;2023-10-13T17:47:18;5.80;;;4.03;;
934;SDS011;454;53.254;10.400;2023-10-13T17:49:45;6.90;;;3.60;;
934;SDS011;454;53.254;10.400;2023-10-13T17:52:13;4.57;;;3.63;;
934;SDS011;454;53.254;10.400;2023-10-13T17:54:41;6.37;;;3.90;;
934;SDS011;454;53.254;10.400;2023-10-13T17:57:08;5.20;;;3.50;;
934;SDS011;454;53.254;10.400;2023-10-13T17:59:35;8.73;;;3.60;;
934;SDS011;454;53.254;10.400;2023-10-13T18:02:02;5.97;;;3.57;;
934;SDS011;454;53.254;10.400;2023-10-13T18:04:28;10.47;;;4.20;;
934;SDS011;454;53.254;10.400;2023-10-13T18:06:56;5.60;;;4.30;;
934;SDS011;454;53.254;10.400;2023-10-13T18:09:23;4.13;;;3.43;;
934;SDS011;454;53.254;10.400;2023-10-13T18:11:51;3.33;;;3.03;;
934;SDS011;454;53.254;10.400;2023-10-13T18:14:19;9.20;;;3.70;;
934;SDS011;454;53.254;10.400;2023-10-13T18:16:46;7.63;;;4.20;;
934;SDS011;454;53.254;10.400;2023-10-13T18:19:14;7.13;;;4.03;;
934;SDS011;454;53.254;10.400;2023-10-13T18:21:45;6.47;;;3.80;;
934;SDS011;454;53.254;10.400;2023-10-13T18:24:12;5.27;;;4.60;;
934;SDS011;454;53.254;10.400;2023-10-13T18:26:39;4.67;;;4.37;;
934;SDS011;454;53.254;10.400;2023-10-13T18:29:07;6.23;;;4.20;;
934;SDS011;454;53.254;10.400;2023-10-13T18:31:34;11.47;;;5.00;;
934;SDS011;454;53.254;10.400;2023-10-13T18:34:01;8.47;;;4.67;;
934;SDS011;454;53.254;10.400;2023-10-13T18:36:28;9.57;;;5.17;;
934;SDS011;454;53.254;10.400;2023-10-13T18:38:55;9.73;;;4.37;;
934;SDS011;454;53.254;10.400;2023-10-13T18:41:24;11.20;;;4.97;;
934;SDS011;454;53.254;10.400;2023-10-13T18:43:54;7.73;;;4.73;;
934;SDS011;454;53.254;10.400;2023-10-13T18:46:24;5.10;;;4.67;;
934;SDS011;454;53.254;10.400;2023-10-13T18:48:51;9.77;;;6.57;;
934;SDS011;454;53.254;10.400;2023-10-13T18:51:22;11.40;;;4.87;;
934;SDS011;454;53.254;10.400;2023-10-13T18:53:50;15.10;;;5.67;;
934;SDS011;454;53.254;10.400;2023-10-13T18:56:18;8.13;;;6.10;;
934;SDS011;454;53.254;10.400;2023-10-13T18:58:46;9.17;;;5.50;;
934;SDS011;454;53.254;10.400;2023-10-13T19:01:19;5.73;;;4.97;;
934;SDS011;454;53.254;10.400;2023-10-13T19:03:51;11.87;;;6.07;;
934;SDS011;454;53.254;10.400;2023-10-13T19:06:19;10.20;;;5.63;;
934;SDS011;454;53.254;10.400;2023-10-13T19:08:47;8.17;;;4.93;;
934;SDS011;454;53.254;10.400;2023-10-13T19:11:16;8.90;;;5.67;;
934;SDS011;454;53.254;10.400;2023-10-13T19:13:44;6.67;;;5.70;;
934;SDS011;454;53.254;10.400;2023-10-13T19:16:14;8.60;;;5.10;;
934;SDS011;454;53.254;10.400;2023-10-13T19:18:42;8.57;;;5.40;;
934;SDS011;454;53.254;10.400;2023-10-13T19:21:13;7.87;;;4.70;;
934;SDS011;454;53.254;10.400;2023-10-13T19:23:42;8.50;;;5.37;;
934;SDS011;454;53.254;10.400;2023-10-13T19:26:11;7.43;;;4.43;;
934;SDS011;454;53.254;10.400;2023-10-13T19:28:40;5.73;;;5.00;;
934;SDS011;454;53.254;10.400;2023-10-13T19:31:08;13.03;;;5.90;;
934;SDS011;454;53.254;10.400;2023-10-13T19:33:40;5.20;;;4.67;;
934;SDS011;454;53.254;10.400;2023-10-13T19:36:08;7.90;;;6.37;;
934;SDS011;454;53.254;10.400;2023-10-13T19:38:38;8.70;;;5.27;;
934;SDS011;454;53.254;10.400;2023-10-13T19:41:11;7.37;;;4.40;;
934;SDS011;454;53.254;10.400;2023-10-13T19:43:42;8.50;;;5.97;;
934;SDS011;454;53.254;10.400;2023-10-13T19:46:10;5.57;;;4.90;;
934;SDS011;454;53.254;10.400;2023-10-13T19:48:38;10.60;;;5.30;;
934;SDS011;454;53.254;10.400;2023-10-13T19:51:05;11.77;;;5.27;;
934;SDS011;454;53.254;10.400;2023-10-13T19:53:35;5.90;;;5.00;;
934;SDS011;454;53.254;10.400;2023-10-13T19:56:09;7.00;;;5.20;;
934;SDS011;454;53.254;10.400;2023-10-13T19:58:37;6.80;;;5.33;;